createdAt,value
2019-05-17T00:01:46.870Z,8.53
2019-05-17T00:06:48.801Z,8.83
2019-05-17T00:11:50.464Z,8.53
2019-05-17T00:16:52.263Z,6.97
2019-05-17T00:21:56.504Z,8.70
2019-05-17T00:26:58.593Z,9.10
2019-05-17T00:32:00.510Z,7.75
2019-05-17T00:37:02.265Z,8.33
2019-05-17T00:42:03.991Z,8.98
2019-05-17T00:47:06.703Z,9.15
2019-05-17T00:52:08.543Z,8.13
2019-05-17T00:57:10.311Z,10.32
2019-05-17T01:02:13.419Z,8.98
2019-05-17T01:07:17.553Z,10.48
2019-05-17T01:12:18.745Z,12.90
2019-05-17T01:17:20.417Z,10.60
2019-05-17T01:22:22.084Z,10.72
2019-05-17T01:27:23.787Z,10.35
2019-05-17T01:32:26.674Z,9.95
2019-05-17T01:37:28.491Z,10.90
2019-05-17T01:42:30.099Z,10.05
2019-05-17T01:47:32.527Z,10.48
2019-05-17T01:52:34.223Z,9.58
2019-05-17T01:57:36.961Z,12.05
2019-05-17T02:02:41.399Z,11.85
2019-05-17T02:07:43.130Z,9.55
2019-05-17T02:12:48.725Z,10.98
2019-05-17T02:17:48.355Z,11.22
2019-05-17T02:22:50.027Z,10.40
2019-05-17T02:27:52.295Z,12.93
2019-05-17T02:32:54.432Z,9.70
2019-05-17T02:37:56.366Z,10.35
2019-05-17T02:42:58.052Z,11.70
2019-05-17T02:48:03.269Z,10.43
2019-05-17T02:53:04.361Z,10.18
2019-05-17T02:58:06.639Z,11.30
2019-05-17T03:03:08.379Z,12.60
2019-05-17T03:08:12.338Z,9.63
2019-05-17T03:13:17.935Z,9.70
2019-05-17T03:18:17.822Z,10.82
2019-05-17T03:23:19.513Z,11.05
2019-05-17T03:28:23.569Z,11.78
2019-05-17T03:33:26.642Z,9.73
2019-05-17T03:38:28.636Z,11.95
2019-05-17T03:43:30.685Z,10.48
2019-05-17T03:48:33.525Z,11.20
2019-05-17T03:53:35.428Z,9.83
2019-05-17T03:58:37.175Z,11.38
2019-05-17T04:03:38.854Z,10.60
2019-05-17T04:08:42.519Z,11.22
2019-05-17T04:13:44.576Z,12.03
2019-05-17T04:18:46.277Z,12.47
2019-05-17T04:23:47.963Z,12.53
2019-05-17T04:28:52.978Z,11.22
2019-05-17T04:33:53.763Z,11.90
2019-05-17T04:38:55.603Z,12.55
2019-05-17T04:43:57.614Z,11.43
2019-05-17T04:49:02.681Z,11.35
2019-05-17T04:54:03.413Z,12.93
2019-05-17T04:59:05.267Z,12.40
2019-05-17T05:04:06.937Z,12.70
2019-05-17T05:09:08.636Z,10.98
2019-05-17T05:14:12.827Z,11.90
2019-05-17T05:19:13.779Z,14.65
2019-05-17T05:24:15.472Z,11.38
2019-05-17T05:29:17.142Z,12.13
2019-05-17T05:34:18.855Z,11.10
2019-05-17T05:39:22.703Z,12.00
2019-05-17T05:44:25.431Z,12.33
2019-05-17T05:49:27.202Z,11.25
2019-05-17T05:54:28.871Z,11.10
2019-05-17T05:59:31.697Z,14.18
2019-05-17T06:04:34.100Z,12.05
2019-05-17T06:09:35.799Z,14.13
2019-05-17T06:14:37.473Z,12.25
2019-05-17T06:19:39.256Z,12.10
2019-05-17T06:24:42.480Z,11.08
2019-05-17T06:29:46.292Z,12.45
2019-05-17T06:34:48.066Z,10.75
2019-05-17T06:39:49.695Z,13.95
2019-05-17T06:44:52.364Z,12.95
2019-05-17T06:49:54.260Z,10.65
2019-05-17T06:54:55.842Z,13.98
2019-05-17T06:59:59.315Z,13.72
2019-05-17T07:05:03.948Z,12.30
2019-05-17T07:10:05.675Z,12.90
2019-05-17T07:15:07.380Z,12.80
2019-05-17T07:20:10.304Z,14.23
2019-05-17T07:25:12.472Z,13.62
2019-05-17T07:30:14.564Z,15.25
2019-05-17T07:35:16.321Z,14.78
2019-05-17T07:40:19.834Z,18.75
2019-05-17T07:45:21.595Z,15.58
2019-05-17T07:50:26.105Z,18.62
2019-05-17T07:55:30.142Z,16.62
2019-05-17T08:00:31.477Z,14.73
2019-05-17T08:05:33.208Z,19.02
2019-05-17T08:10:35.008Z,20.32
2019-05-17T08:15:36.727Z,19.37
2019-05-17T08:20:40.182Z,18.67
2019-05-17T08:25:52.869Z,21.80
2019-05-17T08:30:46.745Z,19.27
2019-05-17T08:35:49.493Z,21.65
2019-05-17T08:40:51.216Z,21.23
2019-05-17T08:45:52.867Z,21.68
2019-05-17T08:50:54.768Z,22.00
2019-05-17T08:55:56.443Z,22.32
2019-05-17T09:01:00.256Z,25.00
2019-05-17T09:06:02.943Z,21.40
2019-05-17T09:11:05.125Z,24.12
2019-05-17T09:16:06.726Z,27.25
2019-05-17T09:21:09.749Z,28.23
2019-05-17T09:26:11.662Z,27.37
2019-05-17T09:31:13.452Z,23.77
2019-05-17T09:36:15.104Z,23.35
2019-05-17T09:41:16.906Z,27.05
2019-05-17T09:46:19.626Z,22.25
2019-05-17T09:51:21.470Z,24.67
2019-05-17T09:56:23.668Z,23.73
2019-05-17T10:01:25.467Z,24.10
2019-05-17T10:06:27.111Z,21.15
2019-05-17T10:11:30.773Z,21.30
2019-05-17T10:16:32.398Z,18.87
2019-05-17T10:21:34.085Z,21.00
2019-05-17T10:26:35.852Z,19.48
2019-05-17T10:31:39.708Z,16.73
2019-05-17T10:36:41.539Z,19.45
2019-05-17T10:41:43.291Z,15.25
2019-05-17T10:46:45.012Z,17.73
2019-05-17T10:51:49.250Z,16.77
2019-05-17T10:56:50.634Z,16.57
2019-05-17T11:01:54.905Z,16.95
2019-05-17T11:06:56.717Z,12.35
2019-05-17T11:11:58.395Z,14.30
2019-05-17T11:17:00.709Z,10.55
2019-05-17T11:22:02.436Z,9.30
2019-05-17T11:27:04.230Z,8.50
2019-05-17T11:32:05.911Z,11.25
2019-05-17T11:37:08.048Z,8.55
2019-05-17T11:42:09.741Z,7.90
2019-05-17T11:47:11.420Z,6.72
2019-05-17T11:52:13.076Z,5.12
2019-05-17T11:57:14.907Z,7.67
2019-05-17T12:02:16.969Z,6.28
2019-05-17T12:07:19.078Z,6.37
2019-05-17T12:12:20.759Z,6.25
2019-05-17T12:17:22.352Z,7.12
2019-05-17T12:22:24.291Z,6.12
2019-05-17T12:27:26.122Z,7.83
2019-05-17T12:32:27.871Z,7.08
2019-05-17T12:37:30.579Z,8.00
2019-05-17T12:42:32.288Z,6.25
2019-05-17T12:47:33.999Z,5.60
2019-05-17T12:52:37.748Z,7.87
2019-05-17T12:57:39.434Z,8.30
2019-05-17T13:06:32.376Z,5.40
2019-05-17T13:11:34.079Z,6.65
2019-05-17T14:36:05.283Z,7.70
2019-05-17T14:41:08.772Z,6.35
2019-05-17T14:46:11.251Z,6.67
2019-05-17T14:51:13.008Z,7.50
2019-05-17T14:56:15.029Z,6.58
2019-05-17T15:01:16.767Z,5.58
2019-05-17T15:06:18.435Z,5.05
2019-05-17T15:11:20.480Z,4.53
2019-05-17T15:16:22.556Z,6.22
2019-05-17T15:21:24.343Z,7.15
2019-05-17T15:26:26.257Z,4.22
2019-05-17T15:31:28.283Z,7.70
2019-05-17T15:36:30.048Z,4.90
2019-05-17T15:41:31.757Z,5.87
2019-05-17T15:46:33.493Z,5.58
2019-05-17T16:00:41.825Z,5.37
2019-05-17T16:05:43.735Z,3.55
2019-05-17T16:10:45.539Z,4.08
2019-05-17T16:24:27.080Z,5.45
2019-05-17T16:29:35.892Z,5.87
2019-05-17T16:39:39.916Z,3.40
2019-05-17T16:56:25.816Z,3.47
2019-05-17T17:01:27.573Z,3.52
2019-05-17T17:06:29.343Z,3.47
2019-05-17T17:11:31.513Z,5.25
2019-05-17T17:16:33.229Z,4.58
2019-05-17T17:21:35.042Z,3.42
2019-05-17T17:26:36.735Z,3.40
2019-05-17T17:31:38.576Z,3.75
2019-05-17T17:43:36.392Z,4.35
2019-05-17T17:48:38.164Z,4.67
2019-05-17T17:56:16.339Z,5.85
2019-05-17T18:01:18.081Z,4.62
2019-05-17T18:06:20.164Z,4.40
2019-05-17T18:11:21.922Z,4.53
2019-05-17T18:16:23.664Z,4.37
2019-05-17T18:22:31.140Z,5.15
2019-05-17T18:28:27.231Z,4.97
2019-05-17T18:33:29.134Z,40.88
2019-05-17T18:38:31.282Z,8.78
2019-05-17T18:43:33.348Z,5.40
2019-05-17T18:48:35.179Z,4.87
2019-05-17T18:53:37.053Z,6.10
2019-05-17T18:58:39.365Z,6.30
2019-05-17T19:03:41.104Z,6.10
2019-05-17T19:08:43.014Z,4.85
2019-05-17T19:13:45.020Z,6.33
2019-05-17T19:18:46.881Z,5.00
2019-05-17T19:23:48.564Z,6.03
2019-05-17T19:28:50.834Z,5.12
2019-05-17T19:33:52.535Z,5.72
2019-05-17T19:38:54.453Z,6.62
2019-05-17T19:43:56.149Z,10.10
2019-05-17T19:48:58.563Z,7.85
2019-05-17T19:54:01.214Z,5.62
2019-05-17T19:59:02.963Z,6.15
2019-05-17T20:04:04.972Z,5.75
2019-05-17T20:09:07.183Z,7.90
2019-05-17T20:14:08.954Z,5.87
2019-05-17T20:19:10.689Z,5.62
2019-05-17T20:24:12.397Z,7.70
2019-05-17T20:29:14.193Z,8.58
2019-05-17T20:34:15.921Z,6.65
2019-05-17T20:39:17.671Z,8.30
2019-05-17T20:44:22.844Z,7.95
2019-05-17T20:49:24.669Z,5.45
2019-05-17T20:54:26.433Z,5.55
2019-05-17T20:59:28.210Z,4.97
2019-05-17T21:04:29.992Z,5.35
2019-05-17T21:09:32.142Z,5.83
2019-05-17T21:14:33.959Z,5.60
2019-05-17T21:19:35.762Z,5.40
2019-05-17T21:24:37.488Z,5.17
2019-05-17T21:29:39.608Z,5.80
2019-05-17T21:34:41.374Z,7.62
2019-05-17T21:39:43.123Z,6.22
2019-05-17T21:44:44.874Z,5.50
2019-05-17T21:49:46.602Z,7.92
2019-05-17T21:54:48.411Z,5.75
2019-05-17T21:59:50.099Z,7.62
2019-05-17T22:04:51.741Z,4.97
2019-05-17T22:09:53.695Z,7.05
2019-05-17T22:14:55.484Z,5.87
2019-05-17T22:19:57.228Z,6.95
2019-05-17T22:24:58.915Z,7.53
2019-05-17T22:30:00.679Z,6.15
2019-05-17T22:35:02.385Z,8.93
2019-05-17T22:40:04.399Z,6.40
2019-05-17T22:45:06.139Z,7.25
2019-05-17T22:50:08.184Z,6.03
2019-05-17T22:55:09.908Z,6.35
2019-05-17T23:00:11.711Z,6.53
2019-05-17T23:05:13.531Z,6.10
2019-05-17T23:10:15.284Z,5.72
2019-05-17T23:15:17.370Z,6.03
2019-05-17T23:20:19.124Z,4.83
2019-05-17T23:25:20.803Z,6.10
2019-05-17T23:30:22.592Z,6.35
2019-05-17T23:35:24.345Z,8.68
2019-05-17T23:40:26.142Z,6.95
2019-05-17T23:45:27.820Z,5.33
2019-05-17T23:50:29.527Z,5.03
2019-05-17T23:55:31.293Z,6.70
